createdAt,value
2018-11-28T00:00:33.616Z,5.60
2018-11-28T00:03:05.299Z,5.60
2018-11-28T00:05:33.388Z,5.50
2018-11-28T00:08:01.428Z,5.40
2018-11-28T00:10:29.389Z,5.30
2018-11-28T00:12:58.280Z,5.40
2018-11-28T00:15:26.584Z,5.40
2018-11-28T00:17:54.820Z,5.40
2018-11-28T00:20:24.296Z,5.40
2018-11-28T00:22:52.168Z,5.50
2018-11-28T00:25:20.155Z,5.50
2018-11-28T00:27:48.014Z,5.50
2018-11-28T00:30:19.771Z,5.50
2018-11-28T00:32:47.752Z,5.60
2018-11-28T00:35:17.099Z,5.60
2018-11-28T00:37:44.951Z,5.60
2018-11-28T00:40:15.536Z,5.60
2018-11-28T00:42:43.397Z,5.60
2018-11-28T00:45:14.184Z,5.60
2018-11-28T00:47:42.365Z,5.50
2018-11-28T00:50:21.680Z,5.30
2018-11-28T00:52:49.644Z,5.30
2018-11-28T00:55:18.054Z,5.30
2018-11-28T00:57:46.310Z,5.30
2018-11-28T01:00:18.390Z,5.40
2018-11-28T01:02:46.804Z,5.40
2018-11-28T01:05:15.344Z,5.40
2018-11-28T01:07:43.945Z,5.40
2018-11-28T01:10:13.854Z,5.40
2018-11-28T01:12:42.066Z,5.30
2018-11-28T01:15:11.599Z,5.20
2018-11-28T01:17:39.968Z,5.30
2018-11-28T01:20:13.290Z,5.40
2018-11-28T01:22:41.407Z,5.30
2018-11-28T01:25:13.570Z,5.40
2018-11-28T01:27:42.036Z,5.40
2018-11-28T01:30:17.188Z,5.40
2018-11-28T01:32:45.402Z,5.50
2018-11-28T01:35:14.211Z,5.40
2018-11-28T01:37:42.328Z,5.30
2018-11-28T01:40:22.431Z,5.10
2018-11-28T01:42:51.034Z,5.10
2018-11-28T01:45:20.867Z,5.20
2018-11-28T01:47:49.164Z,5.20
2018-11-28T01:50:19.279Z,5.20
2018-11-28T01:52:47.621Z,5.30
2018-11-28T01:55:26.124Z,5.30
2018-11-28T01:57:54.292Z,5.30
2018-11-28T02:00:24.930Z,5.40
2018-11-28T02:02:55.191Z,5.40
2018-11-28T02:05:23.109Z,5.40
2018-11-28T02:07:51.048Z,5.40
2018-11-28T02:10:19.463Z,5.30
2018-11-28T02:12:47.748Z,5.30
2018-11-28T02:15:17.992Z,5.40
2018-11-28T02:17:45.911Z,5.50
2018-11-28T02:20:15.732Z,5.50
2018-11-28T02:22:43.787Z,5.40
2018-11-28T02:25:12.705Z,5.50
2018-11-28T02:27:41.668Z,5.40
2018-11-28T02:30:11.169Z,5.40
2018-11-28T02:32:39.994Z,5.10
2018-11-28T02:35:09.684Z,5.00
2018-11-28T02:37:38.239Z,5.10
2018-11-28T02:40:08.941Z,5.10
2018-11-28T02:42:36.819Z,5.00
2018-11-28T02:45:07.702Z,5.00
2018-11-28T02:47:35.612Z,4.90
2018-11-28T02:50:04.186Z,5.00
2018-11-28T02:52:32.044Z,5.00
2018-11-28T02:55:00.342Z,5.10
2018-11-28T02:57:28.335Z,5.10
2018-11-28T02:59:56.417Z,5.10
2018-11-28T03:02:24.730Z,5.10
2018-11-28T03:04:53.928Z,5.10
2018-11-28T03:07:21.960Z,5.20
2018-11-28T03:09:50.037Z,5.20
2018-11-28T03:12:18.260Z,5.20
2018-11-28T03:14:46.486Z,5.10
2018-11-28T03:17:20.156Z,5.10
2018-11-28T03:19:48.184Z,5.10
2018-11-28T03:22:16.362Z,5.00
2018-11-28T03:24:44.576Z,5.10
2018-11-28T03:27:12.945Z,5.10
2018-11-28T03:29:41.014Z,5.00
2018-11-28T03:32:09.062Z,4.90
2018-11-28T03:34:37.079Z,5.00
2018-11-28T03:37:05.525Z,5.00
2018-11-28T03:39:33.768Z,5.10
2018-11-28T03:44:48.182Z,5.00
2018-11-28T03:47:16.567Z,4.90
2018-11-28T03:49:44.521Z,4.90
2018-11-28T03:52:12.728Z,4.90
2018-11-28T03:54:40.758Z,5.00
2018-11-28T03:57:09.103Z,4.80
2018-11-28T03:59:37.496Z,4.50
2018-11-28T04:02:06.084Z,4.50
2018-11-28T04:04:34.087Z,4.40
2018-11-28T04:07:02.234Z,4.50
2018-11-28T04:09:30.522Z,4.60
2018-11-28T04:11:59.009Z,4.50
2018-11-28T04:14:27.334Z,4.50
2018-11-28T04:16:55.294Z,4.40
2018-11-28T04:19:23.380Z,4.50
2018-11-28T04:21:51.377Z,4.50
2018-11-28T04:24:19.460Z,4.50
2018-11-28T04:26:47.573Z,4.40
2018-11-28T04:29:16.021Z,4.30
2018-11-28T04:31:44.155Z,4.20
2018-11-28T04:34:12.282Z,4.10
2018-11-28T04:36:40.226Z,4.00
2018-11-28T04:39:08.751Z,4.00
2018-11-28T04:41:37.002Z,4.00
2018-11-28T04:44:05.819Z,4.00
2018-11-28T04:46:34.786Z,4.00
2018-11-28T04:49:03.207Z,4.00
2018-11-28T04:51:31.401Z,3.90
2018-11-28T04:53:59.688Z,3.90
2018-11-28T04:56:28.348Z,4.00
2018-11-28T04:58:56.347Z,3.90
2018-11-28T05:01:24.817Z,3.90
2018-11-28T05:03:53.198Z,3.80
2018-11-28T05:06:33.013Z,3.80
2018-11-28T05:09:01.115Z,3.80
2018-11-28T05:11:29.035Z,3.80
2018-11-28T05:13:57.085Z,3.90
2018-11-28T05:16:24.831Z,4.00
2018-11-28T05:18:52.756Z,4.10
2018-11-28T05:21:20.663Z,4.10
2018-11-28T05:23:48.646Z,4.10
2018-11-28T05:26:17.233Z,4.00
2018-11-28T05:28:44.987Z,4.00
2018-11-28T05:31:12.767Z,4.00
2018-11-28T05:33:40.613Z,3.70
2018-11-28T05:36:08.474Z,3.80
2018-11-28T05:38:36.304Z,3.90
2018-11-28T05:41:04.739Z,3.90
2018-11-28T05:43:32.520Z,3.90
2018-11-28T05:46:00.403Z,3.80
2018-11-28T05:48:28.156Z,3.90
2018-11-28T05:50:56.276Z,4.00
2018-11-28T05:53:24.099Z,3.90
2018-11-28T05:55:52.084Z,3.90
2018-11-28T05:58:19.992Z,3.90
2018-11-28T06:00:47.765Z,3.70
2018-11-28T06:03:15.596Z,3.60
2018-11-28T06:05:43.773Z,3.60
2018-11-28T06:08:11.685Z,3.60
2018-11-28T06:10:39.465Z,3.70
2018-11-28T06:13:07.396Z,3.80
2018-11-28T06:15:35.325Z,3.70
2018-11-28T06:18:03.242Z,3.70
2018-11-28T06:20:31.171Z,3.70
2018-11-28T06:22:59.120Z,3.40
2018-11-28T06:25:26.900Z,3.30
2018-11-28T06:27:54.717Z,3.40
2018-11-28T06:30:22.457Z,3.50
2018-11-28T06:32:51.507Z,3.60
2018-11-28T06:35:17.887Z,3.60
2018-11-28T06:37:45.794Z,3.50
2018-11-28T06:40:14.407Z,3.40
2018-11-28T06:42:43.327Z,3.30
2018-11-28T06:45:13.927Z,3.20
2018-11-28T06:47:41.797Z,3.10
2018-11-28T06:50:13.640Z,3.00
2018-11-28T06:52:41.884Z,3.10
2018-11-28T06:55:13.203Z,3.10
2018-11-28T06:57:41.084Z,3.00
2018-11-28T07:00:11.912Z,2.90
2018-11-28T07:02:40.735Z,2.90
2018-11-28T07:05:08.632Z,2.70
2018-11-28T07:07:36.371Z,2.70
2018-11-28T07:10:05.422Z,2.70
2018-11-28T07:12:33.213Z,2.60
2018-11-28T07:15:00.991Z,2.50
2018-11-28T07:17:28.799Z,2.50
2018-11-28T07:19:56.603Z,2.50
2018-11-28T07:22:24.399Z,2.50
2018-11-28T07:24:52.266Z,2.50
2018-11-28T07:27:20.042Z,2.60
2018-11-28T07:29:47.756Z,2.70
2018-11-28T07:32:15.610Z,2.70
2018-11-28T07:34:43.328Z,2.70
2018-11-28T07:37:11.220Z,2.70
2018-11-28T07:39:39.001Z,2.70
2018-11-28T07:42:06.902Z,2.70
2018-11-28T07:44:34.714Z,2.80
2018-11-28T07:47:02.711Z,2.90
2018-11-28T07:49:30.513Z,2.90
2018-11-28T07:51:58.228Z,2.80
2018-11-28T07:54:26.119Z,2.70
2018-11-28T07:56:53.809Z,2.80
2018-11-28T07:59:21.531Z,2.70
2018-11-28T08:01:49.349Z,2.80
2018-11-28T08:04:17.262Z,2.90
2018-11-28T08:06:45.158Z,3.00
2018-11-28T08:09:12.888Z,3.00
2018-11-28T08:11:40.710Z,3.10
2018-11-28T08:14:08.670Z,3.10
2018-11-28T08:16:36.597Z,3.00
2018-11-28T08:19:04.548Z,3.10
2018-11-28T08:21:32.381Z,3.30
2018-11-28T08:24:00.283Z,3.40
2018-11-28T08:26:28.032Z,3.40
2018-11-28T08:28:55.856Z,3.40
2018-11-28T08:31:23.727Z,3.50
2018-11-28T08:33:51.513Z,3.60
2018-11-28T08:36:19.326Z,3.70
2018-11-28T08:38:47.157Z,3.80
2018-11-28T08:41:14.896Z,3.80
2018-11-28T08:43:42.682Z,3.80
2018-11-28T08:46:10.536Z,3.60
2018-11-28T08:48:38.236Z,3.50
2018-11-28T08:51:06.125Z,3.60
2018-11-28T08:53:34.543Z,3.90
2018-11-28T08:56:02.242Z,4.50
2018-11-28T08:58:29.938Z,4.60
2018-11-28T09:00:58.015Z,4.80
2018-11-28T09:03:25.664Z,4.50
2018-11-28T09:05:53.335Z,4.60
2018-11-28T09:08:21.059Z,4.60
2018-11-28T09:10:48.826Z,4.70
2018-11-28T09:13:16.597Z,4.80
2018-11-28T09:15:44.290Z,4.80
2018-11-28T09:18:12.228Z,4.60
2018-11-28T09:20:39.937Z,4.70
2018-11-28T09:23:07.770Z,4.80
2018-11-28T09:25:35.487Z,4.80
2018-11-28T09:28:03.130Z,4.70
2018-11-28T09:30:30.886Z,4.80
2018-11-28T09:32:58.635Z,5.00
2018-11-28T09:35:26.495Z,4.90
2018-11-28T09:37:54.317Z,4.90
2018-11-28T09:40:25.129Z,5.00
2018-11-28T09:42:55.049Z,5.20
2018-11-28T09:45:22.948Z,5.40
2018-11-28T09:47:50.953Z,5.50
2018-11-28T09:50:19.831Z,5.60
2018-11-28T09:52:47.627Z,5.70
2018-11-28T09:55:17.523Z,5.90
2018-11-28T09:57:45.286Z,6.10
2018-11-28T10:00:17.110Z,6.30
2018-11-28T10:02:44.888Z,6.40
2018-11-28T10:05:15.786Z,6.40
2018-11-28T10:07:43.703Z,6.50
2018-11-28T10:10:12.147Z,6.40
2018-11-28T10:12:41.967Z,6.20
2018-11-28T10:15:15.873Z,6.30
2018-11-28T10:17:43.792Z,6.40
2018-11-28T10:20:12.867Z,6.50
2018-11-28T10:22:41.404Z,6.60
2018-11-28T10:25:10.824Z,6.70
2018-11-28T10:27:38.716Z,6.90
2018-11-28T10:30:13.943Z,7.00
2018-11-28T10:32:41.817Z,7.10
2018-11-28T10:35:09.691Z,7.20
2018-11-28T10:37:37.360Z,7.30
2018-11-28T10:40:08.964Z,7.20
2018-11-28T10:42:36.749Z,7.30
2018-11-28T10:45:05.953Z,7.30
2018-11-28T10:47:33.596Z,7.30
2018-11-28T10:50:01.348Z,7.20
2018-11-28T10:52:29.055Z,7.20
2018-11-28T10:54:56.802Z,7.10
2018-11-28T10:57:24.670Z,7.20
2018-11-28T10:59:52.454Z,7.20
2018-11-28T11:02:25.798Z,7.20
2018-11-28T11:04:59.066Z,7.10
2018-11-28T11:07:32.453Z,7.00
2018-11-28T11:10:05.755Z,7.00
2018-11-28T11:12:39.226Z,6.90
2018-11-28T11:15:07.002Z,7.00
2018-11-28T11:17:34.632Z,6.90
2018-11-28T11:20:02.424Z,7.00
2018-11-28T11:22:30.108Z,7.10
2018-11-28T11:24:57.712Z,7.10
2018-11-28T11:27:25.587Z,7.00
2018-11-28T11:29:54.000Z,7.00
2018-11-28T11:32:21.907Z,6.90
2018-11-28T11:34:49.604Z,6.90
2018-11-28T11:37:17.380Z,7.00
2018-11-28T11:39:45.458Z,7.00
2018-11-28T11:42:13.212Z,7.10
2018-11-28T11:44:41.141Z,7.10
2018-11-28T11:47:09.060Z,7.10
2018-11-28T11:49:36.821Z,6.90
2018-11-28T11:52:04.589Z,7.10
2018-11-28T11:54:32.266Z,7.20
2018-11-28T11:57:00.057Z,7.20
2018-11-28T11:59:27.824Z,7.30
2018-11-28T12:01:55.651Z,7.20
2018-11-28T12:04:23.426Z,7.30
2018-11-28T12:06:51.320Z,7.40
2018-11-28T12:09:19.096Z,7.50
2018-11-28T12:11:46.823Z,7.40
2018-11-28T12:14:14.563Z,7.50
2018-11-28T12:16:42.342Z,7.50
2018-11-28T12:19:10.024Z,7.50
2018-11-28T12:21:37.761Z,7.70
2018-11-28T12:24:05.552Z,7.60
2018-11-28T12:26:33.475Z,7.60
2018-11-28T12:29:01.267Z,7.60
2018-11-28T12:31:29.202Z,7.50
2018-11-28T12:33:56.909Z,7.50
2018-11-28T12:36:24.623Z,7.50
2018-11-28T12:38:52.317Z,7.50
2018-11-28T12:41:20.045Z,7.50
2018-11-28T12:43:47.743Z,7.60
2018-11-28T12:46:15.379Z,7.50
2018-11-28T12:48:43.091Z,7.60
2018-11-28T12:51:10.791Z,7.70
2018-11-28T12:53:38.588Z,7.80
2018-11-28T12:56:06.338Z,7.80
2018-11-28T12:58:34.140Z,7.80
2018-11-28T13:01:01.932Z,7.70
2018-11-28T13:03:29.675Z,7.70
2018-11-28T13:05:57.452Z,7.70
2018-11-28T13:08:25.175Z,7.70
2018-11-28T13:10:53.023Z,7.70
2018-11-28T13:13:20.694Z,7.70
2018-11-28T13:15:48.394Z,7.80
2018-11-28T13:18:16.121Z,7.70
2018-11-28T13:20:43.852Z,7.70
2018-11-28T13:23:13.760Z,7.70
2018-11-28T13:25:41.631Z,7.70
2018-11-28T13:28:09.566Z,7.80
2018-11-28T13:30:37.597Z,7.80
2018-11-28T13:33:05.443Z,7.70
2018-11-28T13:35:33.167Z,7.70
2018-11-28T13:38:07.071Z,7.70
2018-11-28T13:40:34.820Z,7.60
2018-11-28T13:43:02.651Z,7.60
2018-11-28T13:45:32.583Z,7.60
2018-11-28T13:48:00.387Z,7.50
2018-11-28T13:50:28.261Z,7.40
2018-11-28T13:52:56.980Z,7.40
2018-11-28T13:55:42.026Z,7.30
2018-11-28T13:58:01.106Z,7.30
2018-11-28T14:00:28.772Z,7.20
2018-11-28T14:02:56.478Z,7.20
2018-11-28T14:05:24.150Z,7.10
2018-11-28T14:07:51.821Z,7.10
2018-11-28T14:10:19.487Z,7.10
2018-11-28T14:12:48.123Z,7.10
2018-11-28T14:15:18.094Z,7.10
2018-11-28T14:18:18.261Z,7.10
2018-11-28T14:20:45.950Z,7.10
2018-11-28T14:23:13.590Z,7.10
2018-11-28T14:25:41.265Z,7.10
2018-11-28T14:28:09.566Z,7.00
2018-11-28T14:30:39.334Z,7.00
2018-11-28T14:33:07.128Z,6.90
2018-11-28T14:35:34.930Z,6.90
2018-11-28T14:38:03.073Z,6.90
2018-11-28T14:40:37.037Z,6.90
2018-11-28T14:43:05.548Z,6.80
2018-11-28T14:45:33.384Z,6.80
2018-11-28T14:50:40.482Z,6.90
2018-11-28T14:53:12.432Z,6.90
2018-11-28T14:55:42.353Z,6.80
2018-11-28T14:58:16.585Z,6.90
2018-11-28T15:00:46.483Z,6.90
2018-11-28T15:03:24.696Z,6.80
2018-11-28T15:07:03.261Z,6.80
2018-11-28T15:09:38.312Z,6.80
2018-11-28T15:15:06.406Z,6.80
2018-11-28T15:17:42.524Z,6.70
2018-11-28T15:20:11.305Z,6.70
2018-11-28T15:22:42.320Z,6.60
2018-11-28T15:25:12.063Z,6.60
2018-11-28T15:27:39.958Z,6.60
2018-11-28T15:30:09.479Z,6.60
2018-11-28T15:32:39.023Z,6.60
2018-11-28T15:35:14.499Z,6.70
2018-11-28T15:37:43.432Z,6.60
2018-11-28T15:40:19.717Z,6.60
2018-11-28T15:48:12.215Z,6.70
2018-11-28T15:50:42.331Z,6.60
2018-11-28T15:53:11.427Z,6.60
2018-11-28T15:55:47.333Z,6.60
2018-11-28T16:01:13.845Z,6.40
2018-11-28T16:06:40.121Z,6.20
2018-11-28T16:09:14.539Z,6.10
2018-11-28T16:11:44.828Z,6.20
2018-11-28T16:14:24.690Z,6.10
2018-11-28T16:16:53.160Z,6.10
2018-11-28T16:22:14.911Z,6.00
2018-11-28T16:24:49.426Z,5.90
2018-11-28T16:27:17.581Z,5.90
2018-11-28T16:29:53.416Z,5.90
2018-11-28T16:35:08.119Z,5.90
2018-11-28T16:37:44.644Z,6.00
2018-11-28T16:45:59.484Z,6.00
2018-11-28T16:48:41.198Z,6.00
2018-11-28T16:51:22.864Z,6.00
2018-11-28T16:59:30.747Z,5.80
2018-11-28T17:07:20.140Z,5.90
2018-11-28T17:10:01.028Z,5.80
2018-11-28T17:18:03.536Z,5.80
2018-11-28T17:20:49.030Z,5.80
2018-11-28T17:26:16.240Z,5.70
2018-11-28T17:34:36.216Z,5.50
2018-11-28T17:42:37.961Z,5.40
2018-11-28T17:50:20.201Z,5.30
2018-11-28T17:53:03.348Z,5.30
2018-11-28T17:55:36.369Z,5.40
2018-11-28T17:58:05.457Z,5.40
2018-11-28T18:00:34.152Z,5.20
2018-11-28T18:03:02.206Z,5.10
2018-11-28T18:05:32.448Z,5.00
2018-11-28T18:08:00.177Z,5.00
2018-11-28T18:10:29.400Z,4.90
2018-11-28T18:13:09.796Z,4.70
2018-11-28T18:15:41.199Z,4.80
2018-11-28T18:18:12.487Z,4.80
2018-11-28T18:20:40.486Z,4.70
2018-11-28T18:23:09.871Z,4.70
2018-11-28T18:25:39.445Z,4.70
2018-11-28T18:28:08.774Z,4.70
2018-11-28T18:30:37.287Z,4.80
2018-11-28T18:33:05.751Z,4.80
2018-11-28T18:35:33.558Z,4.80
2018-11-28T18:38:01.333Z,4.90
2018-11-28T18:40:29.349Z,4.90
2018-11-28T18:43:05.643Z,4.90
2018-11-28T18:45:36.366Z,4.80
2018-11-28T18:48:03.219Z,4.70
2018-11-28T18:50:31.779Z,4.80
2018-11-28T18:52:59.919Z,4.70
2018-11-28T18:55:28.149Z,4.70
2018-11-28T18:57:56.853Z,4.70
2018-11-28T19:00:26.318Z,4.60
2018-11-28T19:02:56.304Z,4.50
2018-11-28T19:05:25.815Z,4.50
2018-11-28T19:07:58.540Z,4.40
2018-11-28T19:10:27.129Z,4.30
2018-11-28T19:12:55.128Z,4.30
2018-11-28T19:15:29.384Z,4.30
2018-11-28T19:17:58.922Z,4.20
2018-11-28T19:20:27.556Z,4.20
2018-11-28T19:22:57.239Z,4.10
2018-11-28T19:25:27.788Z,4.20
2018-11-28T19:27:59.330Z,4.30
2018-11-28T19:30:32.158Z,4.40
2018-11-28T19:33:00.234Z,4.50
2018-11-28T19:35:28.433Z,4.60
2018-11-28T19:37:56.752Z,4.60
2018-11-28T19:40:32.204Z,4.60
2018-11-28T19:43:00.857Z,4.60
2018-11-28T19:45:28.851Z,4.70
2018-11-28T19:47:56.960Z,4.70
2018-11-28T19:50:29.626Z,4.70
2018-11-28T19:52:57.547Z,4.70
2018-11-28T19:55:25.371Z,4.80
2018-11-28T19:57:53.663Z,4.90
2018-11-28T20:00:21.832Z,4.80
2018-11-28T20:02:49.996Z,4.80
2018-11-28T20:05:17.980Z,4.60
2018-11-28T20:07:47.960Z,4.60
2018-11-28T20:10:17.416Z,4.60
2018-11-28T20:12:46.500Z,4.50
2018-11-28T20:15:20.514Z,4.40
2018-11-28T20:17:49.132Z,4.30
2018-11-28T20:20:17.162Z,4.20
2018-11-28T20:22:45.678Z,4.10
2018-11-28T20:25:15.872Z,4.20
2018-11-28T20:27:45.264Z,4.10
2018-11-28T20:30:20.722Z,4.10
2018-11-28T20:32:48.667Z,4.10
2018-11-28T20:35:16.478Z,4.00
2018-11-28T20:37:44.857Z,3.90
2018-11-28T20:40:15.253Z,3.90
2018-11-28T20:42:44.872Z,3.90
2018-11-28T20:45:13.372Z,4.00
2018-11-28T20:47:42.059Z,3.80
2018-11-28T20:50:14.687Z,3.80
2018-11-28T20:52:45.867Z,3.80
2018-11-28T20:55:13.681Z,3.80
2018-11-28T20:57:41.503Z,3.80
2018-11-28T21:00:11.996Z,4.00
2018-11-28T21:02:39.757Z,3.80
2018-11-28T21:05:08.395Z,3.80
2018-11-28T21:07:36.936Z,3.70
2018-11-28T21:10:13.423Z,3.70
2018-11-28T21:12:41.803Z,3.80
2018-11-28T21:15:10.548Z,3.90
2018-11-28T21:17:40.576Z,4.00
2018-11-28T21:20:16.151Z,4.00
2018-11-28T21:22:47.463Z,4.10
2018-11-28T21:25:16.274Z,4.20
2018-11-28T21:27:47.441Z,4.20
2018-11-28T21:30:17.858Z,4.20
2018-11-28T21:32:46.818Z,4.20
2018-11-28T21:35:17.263Z,4.10
2018-11-28T21:37:46.502Z,4.10
2018-11-28T21:40:15.460Z,4.00
2018-11-28T21:42:43.508Z,4.00
2018-11-28T21:45:15.423Z,4.10
2018-11-28T21:47:44.606Z,4.10
2018-11-28T21:50:20.529Z,4.10
2018-11-28T21:52:50.364Z,4.00
2018-11-28T21:55:21.286Z,4.00
2018-11-28T21:57:49.296Z,3.80
2018-11-28T22:00:26.531Z,3.80
2018-11-28T22:02:56.325Z,3.70
2018-11-28T22:05:30.090Z,3.90
2018-11-28T22:07:59.967Z,3.90
2018-11-28T22:10:29.712Z,4.00
2018-11-28T22:13:01.315Z,4.00
2018-11-28T22:15:33.836Z,3.90
2018-11-28T22:18:03.087Z,4.00
2018-11-28T22:20:30.991Z,4.10
2018-11-28T22:23:00.659Z,3.90
2018-11-28T22:25:33.485Z,3.80
2018-11-28T22:28:05.729Z,4.00
2018-11-28T22:30:39.879Z,4.00
2018-11-28T22:33:10.492Z,3.90
2018-11-28T22:35:39.824Z,3.90
2018-11-28T22:38:07.587Z,4.00
2018-11-28T22:40:35.415Z,4.10
2018-11-28T22:43:03.879Z,4.20
2018-11-28T22:45:33.831Z,4.30
2018-11-28T22:48:02.315Z,4.40
2018-11-28T22:50:30.825Z,4.40
2018-11-28T22:52:59.506Z,4.40
2018-11-28T22:55:28.158Z,4.30
2018-11-28T22:57:57.116Z,4.30
2018-11-28T23:00:32.452Z,4.30
2018-11-28T23:03:08.204Z,4.40
2018-11-28T23:05:46.875Z,4.40
2018-11-28T23:08:17.516Z,4.40
2018-11-28T23:10:46.271Z,4.30
2018-11-28T23:13:16.422Z,4.40
2018-11-28T23:15:45.237Z,4.40
2018-11-28T23:18:14.176Z,4.30
2018-11-28T23:20:42.783Z,4.30
2018-11-28T23:23:11.782Z,4.30
2018-11-28T23:25:40.310Z,4.30
2018-11-28T23:28:08.337Z,4.20
2018-11-28T23:30:37.687Z,4.00
2018-11-28T23:33:08.331Z,3.90
2018-11-28T23:35:35.876Z,3.80
2018-11-28T23:38:04.370Z,3.80
2018-11-28T23:40:32.413Z,3.80
2018-11-28T23:43:00.171Z,3.90
2018-11-28T23:45:28.227Z,3.90
2018-11-28T23:47:56.443Z,3.90
2018-11-28T23:50:26.272Z,4.00
2018-11-28T23:52:56.411Z,4.10
2018-11-28T23:55:27.552Z,4.20
2018-11-28T23:57:55.782Z,4.30
